sensor_id;sensor_type;location;lat;lon;timestamp;P1;durP1;ratioP1;P2;durP2;ratioP2
28309;SDS011;15571;50.974;13.936;2022-09-30T00:01:42;14.10;;;10.07;;
28309;SDS011;15571;50.974;13.936;2022-09-30T00:04:45;14.98;;;8.98;;
28309;SDS011;15571;50.974;13.936;2022-09-30T00:07:49;12.38;;;8.60;;
28309;SDS011;15571;50.974;13.936;2022-09-30T00:11:04;10.50;;;8.73;;
28309;SDS011;15571;50.974;13.936;2022-09-30T00:14:13;13.10;;;8.57;;
28309;SDS011;15571;50.974;13.936;2022-09-30T00:17:17;13.35;;;9.18;;
28309;SDS011;15571;50.974;13.936;2022-09-30T00:20:26;12.77;;;9.52;;
28309;SDS011;15571;50.974;13.936;2022-09-30T00:23:30;13.73;;;9.35;;
28309;SDS011;15571;50.974;13.936;2022-09-30T00:26:33;15.25;;;9.43;;
28309;SDS011;15571;50.974;13.936;2022-09-30T00:29:36;13.35;;;9.90;;
28309;SDS011;15571;50.974;13.936;2022-09-30T00:32:39;13.93;;;8.85;;
28309;SDS011;15571;50.974;13.936;2022-09-30T00:35:42;13.68;;;9.07;;
28309;SDS011;15571;50.974;13.936;2022-09-30T00:38:46;13.65;;;9.60;;
28309;SDS011;15571;50.974;13.936;2022-09-30T00:41:50;14.60;;;10.15;;
28309;SDS011;15571;50.974;13.936;2022-09-30T00:45:03;14.07;;;9.00;;
28309;SDS011;15571;50.974;13.936;2022-09-30T00:48:07;14.35;;;8.98;;
28309;SDS011;15571;50.974;13.936;2022-09-30T00:51:17;12.77;;;8.85;;
28309;SDS011;15571;50.974;13.936;2022-09-30T00:54:28;12.68;;;9.43;;
28309;SDS011;15571;50.974;13.936;2022-09-30T00:57:36;14.10;;;9.43;;
28309;SDS011;15571;50.974;13.936;2022-09-30T01:00:43;14.35;;;9.73;;
28309;SDS011;15571;50.974;13.936;2022-09-30T01:03:47;11.73;;;9.40;;
28309;SDS011;15571;50.974;13.936;2022-09-30T01:06:53;14.75;;;9.20;;
28309;SDS011;15571;50.974;13.936;2022-09-30T01:09:57;13.45;;;9.23;;
28309;SDS011;15571;50.974;13.936;2022-09-30T01:13:01;12.98;;;9.35;;
28309;SDS011;15571;50.974;13.936;2022-09-30T01:16:10;12.80;;;9.48;;
28309;SDS011;15571;50.974;13.936;2022-09-30T01:23:09;14.57;;;8.73;;
28309;SDS011;15571;50.974;13.936;2022-09-30T01:26:46;13.40;;;9.00;;
28309;SDS011;15571;50.974;13.936;2022-09-30T01:30:05;14.63;;;9.23;;
28309;SDS011;15571;50.974;13.936;2022-09-30T01:33:20;11.02;;;8.43;;
28309;SDS011;15571;50.974;13.936;2022-09-30T01:36:36;12.80;;;8.65;;
28309;SDS011;15571;50.974;13.936;2022-09-30T01:39:56;12.90;;;9.02;;
28309;SDS011;15571;50.974;13.936;2022-09-30T01:43:06;12.88;;;9.07;;
28309;SDS011;15571;50.974;13.936;2022-09-30T01:46:18;14.52;;;9.68;;
28309;SDS011;15571;50.974;13.936;2022-09-30T01:49:31;12.30;;;8.68;;
28309;SDS011;15571;50.974;13.936;2022-09-30T01:52:40;11.07;;;8.63;;
28309;SDS011;15571;50.974;13.936;2022-09-30T01:55:54;12.00;;;8.60;;
28309;SDS011;15571;50.974;13.936;2022-09-30T01:59:04;13.60;;;10.02;;
28309;SDS011;15571;50.974;13.936;2022-09-30T02:02:12;13.68;;;9.52;;
28309;SDS011;15571;50.974;13.936;2022-09-30T02:05:23;13.32;;;9.43;;
28309;SDS011;15571;50.974;13.936;2022-09-30T02:08:35;15.50;;;10.73;;
28309;SDS011;15571;50.974;13.936;2022-09-30T02:11:41;16.73;;;9.60;;
28309;SDS011;15571;50.974;13.936;2022-09-30T02:14:44;15.18;;;10.60;;
28309;SDS011;15571;50.974;13.936;2022-09-30T02:17:53;15.32;;;10.75;;
28309;SDS011;15571;50.974;13.936;2022-09-30T02:21:01;14.35;;;9.63;;
28309;SDS011;15571;50.974;13.936;2022-09-30T02:24:13;15.98;;;10.50;;
28309;SDS011;15571;50.974;13.936;2022-09-30T02:27:26;16.57;;;10.10;;
28309;SDS011;15571;50.974;13.936;2022-09-30T02:30:39;14.57;;;10.13;;
28309;SDS011;15571;50.974;13.936;2022-09-30T02:33:47;14.20;;;9.60;;
28309;SDS011;15571;50.974;13.936;2022-09-30T02:36:56;13.50;;;9.80;;
28309;SDS011;15571;50.974;13.936;2022-09-30T02:40:05;18.23;;;9.77;;
28309;SDS011;15571;50.974;13.936;2022-09-30T02:43:12;16.20;;;9.70;;
28309;SDS011;15571;50.974;13.936;2022-09-30T02:46:22;12.55;;;9.88;;
28309;SDS011;15571;50.974;13.936;2022-09-30T02:49:35;17.63;;;10.73;;
28309;SDS011;15571;50.974;13.936;2022-09-30T02:52:50;14.95;;;10.32;;
28309;SDS011;15571;50.974;13.936;2022-09-30T02:56:05;13.98;;;9.77;;
28309;SDS011;15571;50.974;13.936;2022-09-30T02:59:17;15.27;;;9.40;;
28309;SDS011;15571;50.974;13.936;2022-09-30T03:02:21;14.32;;;9.50;;
28309;SDS011;15571;50.974;13.936;2022-09-30T03:05:26;14.90;;;9.35;;
28309;SDS011;15571;50.974;13.936;2022-09-30T03:08:30;13.13;;;9.52;;
28309;SDS011;15571;50.974;13.936;2022-09-30T03:11:33;17.20;;;10.57;;
28309;SDS011;15571;50.974;13.936;2022-09-30T03:14:42;14.23;;;9.85;;
28309;SDS011;15571;50.974;13.936;2022-09-30T03:18:07;13.68;;;9.82;;
28309;SDS011;15571;50.974;13.936;2022-09-30T03:21:41;14.45;;;9.45;;
28309;SDS011;15571;50.974;13.936;2022-09-30T03:25:10;14.98;;;10.00;;
28309;SDS011;15571;50.974;13.936;2022-09-30T03:28:21;14.40;;;9.07;;
28309;SDS011;15571;50.974;13.936;2022-09-30T03:31:29;15.52;;;9.90;;
28309;SDS011;15571;50.974;13.936;2022-09-30T03:34:45;16.95;;;10.02;;
28309;SDS011;15571;50.974;13.936;2022-09-30T03:41:15;14.23;;;9.05;;
28309;SDS011;15571;50.974;13.936;2022-09-30T03:47:34;14.10;;;10.05;;
28309;SDS011;15571;50.974;13.936;2022-09-30T03:50:43;13.05;;;8.98;;
28309;SDS011;15571;50.974;13.936;2022-09-30T03:53:52;14.52;;;10.30;;
28309;SDS011;15571;50.974;13.936;2022-09-30T03:56:57;16.77;;;10.15;;
28309;SDS011;15571;50.974;13.936;2022-09-30T04:00:09;16.10;;;9.90;;
28309;SDS011;15571;50.974;13.936;2022-09-30T04:03:13;13.25;;;9.32;;
28309;SDS011;15571;50.974;13.936;2022-09-30T04:06:16;13.02;;;9.30;;
28309;SDS011;15571;50.974;13.936;2022-09-30T04:09:23;13.70;;;9.88;;
28309;SDS011;15571;50.974;13.936;2022-09-30T04:12:33;13.60;;;9.43;;
28309;SDS011;15571;50.974;13.936;2022-09-30T04:15:37;13.48;;;8.88;;
28309;SDS011;15571;50.974;13.936;2022-09-30T04:18:40;14.27;;;9.80;;
28309;SDS011;15571;50.974;13.936;2022-09-30T04:21:43;14.13;;;8.82;;
28309;SDS011;15571;50.974;13.936;2022-09-30T04:24:46;12.77;;;9.75;;
28309;SDS011;15571;50.974;13.936;2022-09-30T04:27:53;15.00;;;10.63;;
28309;SDS011;15571;50.974;13.936;2022-09-30T04:30:57;16.27;;;10.20;;
28309;SDS011;15571;50.974;13.936;2022-09-30T04:34:03;11.75;;;9.05;;
28309;SDS011;15571;50.974;13.936;2022-09-30T04:37:06;15.57;;;9.75;;
28309;SDS011;15571;50.974;13.936;2022-09-30T04:40:09;15.20;;;9.43;;
28309;SDS011;15571;50.974;13.936;2022-09-30T04:43:17;14.07;;;9.18;;
28309;SDS011;15571;50.974;13.936;2022-09-30T04:46:21;15.18;;;9.55;;
28309;SDS011;15571;50.974;13.936;2022-09-30T04:49:24;14.48;;;9.50;;
28309;SDS011;15571;50.974;13.936;2022-09-30T04:52:28;14.13;;;9.77;;
28309;SDS011;15571;50.974;13.936;2022-09-30T04:55:30;12.77;;;9.02;;
28309;SDS011;15571;50.974;13.936;2022-09-30T04:58:35;15.38;;;8.93;;
28309;SDS011;15571;50.974;13.936;2022-09-30T05:01:42;12.45;;;8.43;;
28309;SDS011;15571;50.974;13.936;2022-09-30T05:04:48;14.23;;;8.85;;
28309;SDS011;15571;50.974;13.936;2022-09-30T05:07:50;15.02;;;9.43;;
28309;SDS011;15571;50.974;13.936;2022-09-30T05:10:54;16.15;;;9.75;;
28309;SDS011;15571;50.974;13.936;2022-09-30T05:14:05;13.45;;;9.38;;
28309;SDS011;15571;50.974;13.936;2022-09-30T05:17:12;13.75;;;9.40;;
28309;SDS011;15571;50.974;13.936;2022-09-30T05:20:14;13.65;;;9.73;;
28309;SDS011;15571;50.974;13.936;2022-09-30T05:23:17;14.90;;;9.65;;
28309;SDS011;15571;50.974;13.936;2022-09-30T05:26:26;15.35;;;10.80;;
28309;SDS011;15571;50.974;13.936;2022-09-30T05:29:31;16.02;;;10.43;;
28309;SDS011;15571;50.974;13.936;2022-09-30T05:32:36;14.30;;;9.23;;
28309;SDS011;15571;50.974;13.936;2022-09-30T05:35:45;12.93;;;9.50;;
28309;SDS011;15571;50.974;13.936;2022-09-30T05:38:49;15.38;;;9.48;;
28309;SDS011;15571;50.974;13.936;2022-09-30T05:41:52;18.92;;;10.70;;
28309;SDS011;15571;50.974;13.936;2022-09-30T05:45:05;16.90;;;10.63;;
28309;SDS011;15571;50.974;13.936;2022-09-30T05:48:08;19.92;;;11.40;;
28309;SDS011;15571;50.974;13.936;2022-09-30T05:51:11;13.98;;;9.57;;
28309;SDS011;15571;50.974;13.936;2022-09-30T05:54:14;14.10;;;9.93;;
28309;SDS011;15571;50.974;13.936;2022-09-30T05:57:16;15.45;;;10.15;;
28309;SDS011;15571;50.974;13.936;2022-09-30T06:00:23;14.07;;;9.35;;
28309;SDS011;15571;50.974;13.936;2022-09-30T06:03:26;13.18;;;9.05;;
28309;SDS011;15571;50.974;13.936;2022-09-30T06:06:31;18.13;;;9.80;;
28309;SDS011;15571;50.974;13.936;2022-09-30T06:09:38;15.32;;;9.57;;
28309;SDS011;15571;50.974;13.936;2022-09-30T06:12:40;17.63;;;9.35;;
28309;SDS011;15571;50.974;13.936;2022-09-30T06:15:53;15.68;;;9.85;;
28309;SDS011;15571;50.974;13.936;2022-09-30T06:19:02;14.18;;;9.93;;
28309;SDS011;15571;50.974;13.936;2022-09-30T06:22:08;12.18;;;8.38;;
28309;SDS011;15571;50.974;13.936;2022-09-30T06:25:17;14.38;;;9.57;;
28309;SDS011;15571;50.974;13.936;2022-09-30T06:28:20;16.35;;;10.13;;
28309;SDS011;15571;50.974;13.936;2022-09-30T06:31:25;14.18;;;10.32;;
28309;SDS011;15571;50.974;13.936;2022-09-30T06:34:34;13.65;;;9.65;;
28309;SDS011;15571;50.974;13.936;2022-09-30T06:37:37;15.13;;;10.18;;
28309;SDS011;15571;50.974;13.936;2022-09-30T06:40:41;14.98;;;10.48;;
28309;SDS011;15571;50.974;13.936;2022-09-30T06:43:44;15.13;;;9.73;;
28309;SDS011;15571;50.974;13.936;2022-09-30T06:46:54;14.40;;;10.05;;
28309;SDS011;15571;50.974;13.936;2022-09-30T06:49:58;14.70;;;10.23;;
28309;SDS011;15571;50.974;13.936;2022-09-30T06:53:12;16.80;;;10.00;;
28309;SDS011;15571;50.974;13.936;2022-09-30T06:56:17;15.73;;;10.20;;
28309;SDS011;15571;50.974;13.936;2022-09-30T06:59:21;14.48;;;10.23;;
28309;SDS011;15571;50.974;13.936;2022-09-30T07:02:26;14.70;;;10.00;;
28309;SDS011;15571;50.974;13.936;2022-09-30T07:05:30;13.43;;;8.95;;
28309;SDS011;15571;50.974;13.936;2022-09-30T07:08:34;13.20;;;9.48;;
28309;SDS011;15571;50.974;13.936;2022-09-30T07:11:38;14.30;;;9.88;;
28309;SDS011;15571;50.974;13.936;2022-09-30T07:14:41;11.68;;;8.38;;
28309;SDS011;15571;50.974;13.936;2022-09-30T07:17:50;12.18;;;9.00;;
28309;SDS011;15571;50.974;13.936;2022-09-30T07:20:53;14.00;;;9.30;;
28309;SDS011;15571;50.974;13.936;2022-09-30T07:23:59;12.75;;;9.07;;
28309;SDS011;15571;50.974;13.936;2022-09-30T07:27:05;12.85;;;9.38;;
28309;SDS011;15571;50.974;13.936;2022-09-30T07:30:07;14.30;;;9.60;;
28309;SDS011;15571;50.974;13.936;2022-09-30T07:33:12;12.95;;;9.13;;
28309;SDS011;15571;50.974;13.936;2022-09-30T07:36:16;13.63;;;9.18;;
28309;SDS011;15571;50.974;13.936;2022-09-30T07:39:23;12.10;;;9.13;;
28309;SDS011;15571;50.974;13.936;2022-09-30T07:42:26;13.77;;;9.40;;
28309;SDS011;15571;50.974;13.936;2022-09-30T07:45:33;14.88;;;9.70;;
28309;SDS011;15571;50.974;13.936;2022-09-30T07:48:42;13.32;;;9.80;;
28309;SDS011;15571;50.974;13.936;2022-09-30T07:51:47;13.73;;;10.02;;
28309;SDS011;15571;50.974;13.936;2022-09-30T07:54:50;12.73;;;8.98;;
28309;SDS011;15571;50.974;13.936;2022-09-30T07:57:54;11.30;;;8.40;;
28309;SDS011;15571;50.974;13.936;2022-09-30T08:00:59;11.65;;;8.52;;
28309;SDS011;15571;50.974;13.936;2022-09-30T08:04:04;12.93;;;9.20;;
28309;SDS011;15571;50.974;13.936;2022-09-30T08:07:12;14.95;;;9.13;;
28309;SDS011;15571;50.974;13.936;2022-09-30T08:10:16;13.57;;;8.93;;
28309;SDS011;15571;50.974;13.936;2022-09-30T08:13:19;13.07;;;9.07;;
28309;SDS011;15571;50.974;13.936;2022-09-30T08:16:22;13.15;;;8.48;;
28309;SDS011;15571;50.974;13.936;2022-09-30T08:19:30;13.30;;;8.82;;
28309;SDS011;15571;50.974;13.936;2022-09-30T08:22:34;12.82;;;8.50;;
28309;SDS011;15571;50.974;13.936;2022-09-30T08:25:37;11.68;;;8.30;;
28309;SDS011;15571;50.974;13.936;2022-09-30T08:28:42;10.48;;;8.13;;
28309;SDS011;15571;50.974;13.936;2022-09-30T08:31:49;12.60;;;8.70;;
28309;SDS011;15571;50.974;13.936;2022-09-30T08:34:53;11.85;;;8.55;;
28309;SDS011;15571;50.974;13.936;2022-09-30T08:37:55;13.60;;;9.20;;
28309;SDS011;15571;50.974;13.936;2022-09-30T08:41:02;14.40;;;9.07;;
28309;SDS011;15571;50.974;13.936;2022-09-30T08:44:16;13.15;;;8.75;;
28309;SDS011;15571;50.974;13.936;2022-09-30T08:47:37;12.90;;;8.45;;
28309;SDS011;15571;50.974;13.936;2022-09-30T08:50:48;17.08;;;9.30;;
28309;SDS011;15571;50.974;13.936;2022-09-30T08:54:01;11.23;;;8.90;;
28309;SDS011;15571;50.974;13.936;2022-09-30T08:57:13;12.80;;;8.25;;
28309;SDS011;15571;50.974;13.936;2022-09-30T09:00:18;12.30;;;8.40;;
28309;SDS011;15571;50.974;13.936;2022-09-30T09:03:27;10.48;;;7.97;;
28309;SDS011;15571;50.974;13.936;2022-09-30T09:06:37;10.88;;;7.70;;
28309;SDS011;15571;50.974;13.936;2022-09-30T09:09:50;13.60;;;8.30;;
28309;SDS011;15571;50.974;13.936;2022-09-30T09:13:05;9.63;;;7.47;;
28309;SDS011;15571;50.974;13.936;2022-09-30T09:16:20;9.38;;;6.90;;
28309;SDS011;15571;50.974;13.936;2022-09-30T09:19:28;10.48;;;7.60;;
28309;SDS011;15571;50.974;13.936;2022-09-30T09:22:41;11.98;;;8.35;;
28309;SDS011;15571;50.974;13.936;2022-09-30T09:25:45;10.45;;;7.35;;
28309;SDS011;15571;50.974;13.936;2022-09-30T09:29:00;10.48;;;7.10;;
28309;SDS011;15571;50.974;13.936;2022-09-30T09:32:12;8.70;;;7.17;;
28309;SDS011;15571;50.974;13.936;2022-09-30T09:35:20;9.50;;;7.20;;
28309;SDS011;15571;50.974;13.936;2022-09-30T09:38:39;11.18;;;6.88;;
28309;SDS011;15571;50.974;13.936;2022-09-30T09:42:05;11.25;;;8.00;;
28309;SDS011;15571;50.974;13.936;2022-09-30T09:45:24;9.90;;;7.75;;
28309;SDS011;15571;50.974;13.936;2022-09-30T09:48:30;7.63;;;6.47;;
28309;SDS011;15571;50.974;13.936;2022-09-30T09:51:35;12.93;;;8.23;;
28309;SDS011;15571;50.974;13.936;2022-09-30T09:54:44;10.88;;;7.18;;
28309;SDS011;15571;50.974;13.936;2022-09-30T09:58:03;9.63;;;6.65;;
28309;SDS011;15571;50.974;13.936;2022-09-30T10:01:09;9.75;;;7.30;;
28309;SDS011;15571;50.974;13.936;2022-09-30T10:04:31;8.95;;;6.60;;
28309;SDS011;15571;50.974;13.936;2022-09-30T10:07:35;8.40;;;6.25;;
28309;SDS011;15571;50.974;13.936;2022-09-30T10:10:49;8.93;;;6.43;;
28309;SDS011;15571;50.974;13.936;2022-09-30T10:13:54;9.20;;;6.28;;
28309;SDS011;15571;50.974;13.936;2022-09-30T10:16:59;7.60;;;5.93;;
28309;SDS011;15571;50.974;13.936;2022-09-30T10:20:04;12.52;;;7.80;;
28309;SDS011;15571;50.974;13.936;2022-09-30T10:23:21;10.25;;;6.75;;
28309;SDS011;15571;50.974;13.936;2022-09-30T10:26:35;8.05;;;5.95;;
28309;SDS011;15571;50.974;13.936;2022-09-30T10:29:46;10.27;;;6.43;;
28309;SDS011;15571;50.974;13.936;2022-09-30T10:32:49;9.40;;;6.72;;
28309;SDS011;15571;50.974;13.936;2022-09-30T10:39:20;8.90;;;6.65;;
28309;SDS011;15571;50.974;13.936;2022-09-30T10:42:28;8.65;;;6.57;;
28309;SDS011;15571;50.974;13.936;2022-09-30T10:45:34;8.48;;;6.47;;
28309;SDS011;15571;50.974;13.936;2022-09-30T10:48:40;8.93;;;6.35;;
28309;SDS011;15571;50.974;13.936;2022-09-30T10:51:50;11.75;;;7.03;;
28309;SDS011;15571;50.974;13.936;2022-09-30T14:41:25;2.13;;;1.75;;
28309;SDS011;15571;50.974;13.936;2022-09-30T14:44:32;2.42;;;1.90;;
28309;SDS011;15571;50.974;13.936;2022-09-30T14:47:41;2.70;;;1.88;;
28309;SDS011;15571;50.974;13.936;2022-09-30T14:50:50;2.30;;;2.10;;
28309;SDS011;15571;50.974;13.936;2022-09-30T14:53:59;2.45;;;2.25;;
28309;SDS011;15571;50.974;13.936;2022-09-30T14:57:13;4.85;;;2.70;;
28309;SDS011;15571;50.974;13.936;2022-09-30T15:00:18;4.63;;;2.00;;
28309;SDS011;15571;50.974;13.936;2022-09-30T15:03:29;5.82;;;3.20;;
28309;SDS011;15571;50.974;13.936;2022-09-30T15:06:41;6.05;;;3.00;;
28309;SDS011;15571;50.974;13.936;2022-09-30T15:09:46;4.47;;;2.88;;
28309;SDS011;15571;50.974;13.936;2022-09-30T15:12:52;4.57;;;2.80;;
28309;SDS011;15571;50.974;13.936;2022-09-30T15:15:55;5.32;;;2.65;;
28309;SDS011;15571;50.974;13.936;2022-09-30T15:18:58;4.38;;;3.00;;
28309;SDS011;15571;50.974;13.936;2022-09-30T15:22:02;5.60;;;2.88;;
28309;SDS011;15571;50.974;13.936;2022-09-30T15:25:10;5.93;;;2.80;;
28309;SDS011;15571;50.974;13.936;2022-09-30T15:28:17;4.22;;;2.95;;
28309;SDS011;15571;50.974;13.936;2022-09-30T15:31:23;4.05;;;2.80;;
28309;SDS011;15571;50.974;13.936;2022-09-30T15:34:28;4.30;;;2.90;;
28309;SDS011;15571;50.974;13.936;2022-09-30T15:37:31;3.35;;;2.80;;
28309;SDS011;15571;50.974;13.936;2022-09-30T15:40:34;3.67;;;2.97;;
28309;SDS011;15571;50.974;13.936;2022-09-30T15:43:50;6.70;;;4.40;;
28309;SDS011;15571;50.974;13.936;2022-09-30T15:46:59;5.53;;;3.10;;
28309;SDS011;15571;50.974;13.936;2022-09-30T15:50:13;4.55;;;2.85;;
28309;SDS011;15571;50.974;13.936;2022-09-30T15:53:44;8.52;;;3.72;;
28309;SDS011;15571;50.974;13.936;2022-09-30T15:56:49;5.75;;;3.63;;
28309;SDS011;15571;50.974;13.936;2022-09-30T15:59:58;8.00;;;4.00;;
28309;SDS011;15571;50.974;13.936;2022-09-30T16:06:12;5.57;;;3.65;;
28309;SDS011;15571;50.974;13.936;2022-09-30T16:09:21;6.00;;;3.30;;
28309;SDS011;15571;50.974;13.936;2022-09-30T16:12:30;7.47;;;4.57;;
28309;SDS011;15571;50.974;13.936;2022-09-30T16:15:39;5.97;;;4.10;;
28309;SDS011;15571;50.974;13.936;2022-09-30T16:18:51;6.35;;;3.63;;
28309;SDS011;15571;50.974;13.936;2022-09-30T16:21:58;4.60;;;3.30;;
28309;SDS011;15571;50.974;13.936;2022-09-30T16:25:02;5.90;;;3.85;;
28309;SDS011;15571;50.974;13.936;2022-09-30T16:28:15;5.90;;;4.00;;
28309;SDS011;15571;50.974;13.936;2022-09-30T16:31:21;6.07;;;3.97;;
28309;SDS011;15571;50.974;13.936;2022-09-30T16:34:25;4.47;;;3.22;;
28309;SDS011;15571;50.974;13.936;2022-09-30T16:37:29;5.53;;;3.58;;
28309;SDS011;15571;50.974;13.936;2022-09-30T16:40:32;5.88;;;3.85;;
28309;SDS011;15571;50.974;13.936;2022-09-30T16:43:43;6.63;;;4.50;;
28309;SDS011;15571;50.974;13.936;2022-09-30T16:46:48;7.85;;;6.53;;
28309;SDS011;15571;50.974;13.936;2022-09-30T16:49:51;7.07;;;5.65;;
28309;SDS011;15571;50.974;13.936;2022-09-30T16:52:54;7.15;;;5.35;;
28309;SDS011;15571;50.974;13.936;2022-09-30T16:55:57;5.90;;;4.60;;
28309;SDS011;15571;50.974;13.936;2022-09-30T16:58:59;5.75;;;4.50;;
28309;SDS011;15571;50.974;13.936;2022-09-30T17:02:04;4.97;;;4.15;;
28309;SDS011;15571;50.974;13.936;2022-09-30T17:05:11;8.23;;;5.13;;
28309;SDS011;15571;50.974;13.936;2022-09-30T17:08:19;4.85;;;4.00;;
28309;SDS011;15571;50.974;13.936;2022-09-30T17:11:25;4.38;;;3.53;;
28309;SDS011;15571;50.974;13.936;2022-09-30T17:14:32;7.22;;;3.88;;
28309;SDS011;15571;50.974;13.936;2022-09-30T17:17:36;7.30;;;4.00;;
28309;SDS011;15571;50.974;13.936;2022-09-30T17:20:41;4.53;;;3.65;;
28309;SDS011;15571;50.974;13.936;2022-09-30T17:23:45;6.45;;;3.80;;
28309;SDS011;15571;50.974;13.936;2022-09-30T17:26:48;5.35;;;4.00;;
28309;SDS011;15571;50.974;13.936;2022-09-30T17:30:03;4.32;;;3.70;;
28309;SDS011;15571;50.974;13.936;2022-09-30T17:33:11;5.90;;;4.25;;
28309;SDS011;15571;50.974;13.936;2022-09-30T17:36:21;8.32;;;4.22;;
28309;SDS011;15571;50.974;13.936;2022-09-30T17:39:26;6.05;;;4.57;;
28309;SDS011;15571;50.974;13.936;2022-09-30T17:42:29;5.75;;;4.30;;
28309;SDS011;15571;50.974;13.936;2022-09-30T17:45:49;5.72;;;4.43;;
28309;SDS011;15571;50.974;13.936;2022-09-30T17:48:56;7.20;;;4.93;;
28309;SDS011;15571;50.974;13.936;2022-09-30T17:51:59;5.53;;;4.20;;
28309;SDS011;15571;50.974;13.936;2022-09-30T17:55:02;5.90;;;4.40;;
28309;SDS011;15571;50.974;13.936;2022-09-30T17:58:11;7.35;;;4.38;;
28309;SDS011;15571;50.974;13.936;2022-09-30T18:01:15;5.80;;;4.70;;
28309;SDS011;15571;50.974;13.936;2022-09-30T18:04:21;7.22;;;5.05;;
28309;SDS011;15571;50.974;13.936;2022-09-30T18:07:25;9.55;;;5.25;;
28309;SDS011;15571;50.974;13.936;2022-09-30T18:10:28;6.88;;;5.30;;
28309;SDS011;15571;50.974;13.936;2022-09-30T18:13:37;7.30;;;5.60;;
28309;SDS011;15571;50.974;13.936;2022-09-30T18:16:42;6.95;;;5.90;;
28309;SDS011;15571;50.974;13.936;2022-09-30T18:19:49;9.13;;;6.18;;
28309;SDS011;15571;50.974;13.936;2022-09-30T18:22:54;7.93;;;5.90;;
28309;SDS011;15571;50.974;13.936;2022-09-30T18:25:57;10.85;;;7.75;;
28309;SDS011;15571;50.974;13.936;2022-09-30T18:29:01;10.00;;;6.20;;
28309;SDS011;15571;50.974;13.936;2022-09-30T18:32:08;8.13;;;6.82;;
28309;SDS011;15571;50.974;13.936;2022-09-30T18:35:12;12.88;;;7.93;;
28309;SDS011;15571;50.974;13.936;2022-09-30T18:38:17;9.68;;;7.65;;
28309;SDS011;15571;50.974;13.936;2022-09-30T18:41:19;9.20;;;7.53;;
28309;SDS011;15571;50.974;13.936;2022-09-30T18:44:23;12.45;;;7.18;;
